Terminal Aerodrome Forecast
Issued by NWS Green Bay, WI

Home | Current Version | Previous Version | Text Only | Print | Product List | Glossary On
Versions: 1 2 3 4 5 6 7 8 9 10 11 12 13 14
000
FTUS43 KGRB 161129
TAFGRB
TAF
KGRB 161129Z 1612/1712 VRB03KT P6SM BKN200
      TEMPO 1612/1615 5SM BR
     FM162000 13003KT 6SM -FZRASNPL SCT035 OVC060
     FM162200 12003KT 3SM -FZRAPL BR OVC030
     FM170000 10003KT 2SM -FZRAPL BR OVC011
     FM170300 07005KT 1 1/2SM -FZRA BR OVC006
     FM170700 05009G17KT 1 1/2SM -FZRA BR OVC005=

USA.gov is the U.S. government's official web portal to all federal, state and local government web resources and services.